createdAt,value
2023-03-06T00:00:06.443Z,91.74
2023-03-06T00:01:06.450Z,91.64
2023-03-06T00:02:06.582Z,91.64
2023-03-06T00:03:06.382Z,91.64
2023-03-06T00:04:06.499Z,91.74
2023-03-06T00:05:06.411Z,91.85
2023-03-06T00:06:06.342Z,91.85
2023-03-06T00:07:06.237Z,91.74
2023-03-06T00:08:06.936Z,91.74
2023-03-06T00:09:06.766Z,91.74
2023-03-06T00:10:06.730Z,91.85
2023-03-06T00:11:06.261Z,91.74
2023-03-06T00:12:06.824Z,91.74
2023-03-06T00:13:06.144Z,91.74
2023-03-06T00:14:06.496Z,91.74
2023-03-06T00:15:07.194Z,91.74
2023-03-06T00:16:06.189Z,91.74
2023-03-06T00:17:06.232Z,91.74
2023-03-06T00:18:06.798Z,91.95
2023-03-06T00:19:07.573Z,92.05
2023-03-06T00:20:06.119Z,92.16
2023-03-06T00:21:06.271Z,92.16
2023-03-06T00:22:06.311Z,92.16
2023-03-06T00:23:06.002Z,92.05
2023-03-06T00:24:06.047Z,91.95
2023-03-06T00:25:06.003Z,91.95
2023-03-06T00:26:05.961Z,92.05
2023-03-06T00:27:05.960Z,91.95
2023-03-06T00:28:05.928Z,91.85
2023-03-06T00:29:05.968Z,91.74
2023-03-06T00:30:05.900Z,91.74
2023-03-06T00:31:05.984Z,91.85
2023-03-06T00:32:06.100Z,91.85
2023-03-06T00:33:05.913Z,91.74
2023-03-06T00:34:05.917Z,91.74
2023-03-06T00:35:05.842Z,91.85
2023-03-06T00:36:05.819Z,91.85
2023-03-06T00:37:06.168Z,91.85
2023-03-06T00:38:05.797Z,91.85
2023-03-06T00:39:05.859Z,91.91
2023-03-06T00:40:05.768Z,92.05
2023-03-06T00:41:05.748Z,92.16
2023-03-06T00:42:06.008Z,92.16
2023-03-06T00:43:05.766Z,92.26
2023-03-06T00:44:05.829Z,92.26
2023-03-06T00:45:05.697Z,92.36
2023-03-06T00:46:05.793Z,92.47
2023-03-06T00:47:05.755Z,92.68
2023-03-06T00:48:05.664Z,92.68
2023-03-06T00:49:05.733Z,92.68
2023-03-06T00:50:05.804Z,92.68
2023-03-06T00:51:05.629Z,92.68
2023-03-06T00:52:05.630Z,92.68
2023-03-06T00:53:05.602Z,92.68
2023-03-06T00:54:05.681Z,92.68
2023-03-06T00:55:05.630Z,92.68
2023-03-06T00:56:05.557Z,92.68
2023-03-06T00:57:05.577Z,92.68
2023-03-06T00:58:05.528Z,92.68
2023-03-06T00:59:05.515Z,92.78
2023-03-06T01:00:05.558Z,92.88
2023-03-06T01:01:05.561Z,92.78
2023-03-06T01:02:05.525Z,92.68
2023-03-06T01:03:05.463Z,92.68
2023-03-06T01:04:05.444Z,92.68
2023-03-06T01:05:05.439Z,92.68
2023-03-06T01:06:05.423Z,92.78
2023-03-06T01:07:05.422Z,92.78
2023-03-06T01:08:05.408Z,92.99
2023-03-06T01:09:05.372Z,92.88
2023-03-06T01:10:05.373Z,92.88
2023-03-06T01:11:05.356Z,92.88
2023-03-06T01:12:05.368Z,93.10
2023-03-06T01:13:05.337Z,93.20
2023-03-06T01:14:05.324Z,93.20
2023-03-06T01:15:05.359Z,93.20
2023-03-06T01:16:05.311Z,93.10
2023-03-06T01:17:05.297Z,92.99
2023-03-06T01:18:05.262Z,92.99
2023-03-06T01:19:05.240Z,92.88
2023-03-06T01:20:05.238Z,92.99
2023-03-06T01:21:05.220Z,93.20
2023-03-06T01:22:05.224Z,93.20
2023-03-06T01:23:05.191Z,93.20
2023-03-06T01:24:05.193Z,93.20
2023-03-06T01:25:05.170Z,93.20
2023-03-06T01:26:05.149Z,93.20
2023-03-06T01:27:05.159Z,93.10
2023-03-06T01:28:05.128Z,93.20
2023-03-06T01:29:05.134Z,93.20
2023-03-06T01:30:05.154Z,93.30
2023-03-06T01:31:05.089Z,93.30
2023-03-06T01:32:05.258Z,93.30
2023-03-06T01:33:05.058Z,93.30
2023-03-06T01:34:05.052Z,93.30
2023-03-06T01:35:05.035Z,93.30
2023-03-06T01:36:05.041Z,93.30
2023-03-06T01:37:05.033Z,93.30
2023-03-06T01:38:05.000Z,93.20
2023-03-06T01:39:04.993Z,92.78
2023-03-06T01:40:04.972Z,92.41
2023-03-06T01:41:04.971Z,91.99
2023-03-06T01:42:04.961Z,91.99
2023-03-06T01:43:04.941Z,92.10
2023-03-06T01:44:04.913Z,92.20
2023-03-06T01:45:04.928Z,92.30
2023-03-06T01:46:04.949Z,92.51
2023-03-06T01:47:04.901Z,92.61
2023-03-06T01:48:04.862Z,92.61
2023-03-06T01:49:04.871Z,92.41
2023-03-06T01:50:04.842Z,92.10
2023-03-06T01:51:04.833Z,91.78
2023-03-06T01:52:04.831Z,91.68
2023-03-06T01:53:04.812Z,91.53
2023-03-06T01:54:04.793Z,91.47
2023-03-06T01:55:04.782Z,91.47
2023-03-06T01:56:04.763Z,91.58
2023-03-06T01:57:04.779Z,91.58
2023-03-06T01:58:04.733Z,91.78
2023-03-06T01:59:04.733Z,91.89
2023-03-06T02:00:04.712Z,92.10
2023-03-06T02:01:04.725Z,92.30
2023-03-06T02:02:04.747Z,92.51
2023-03-06T02:03:04.685Z,92.61
2023-03-06T02:04:04.654Z,92.82
2023-03-06T02:05:04.655Z,93.03
2023-03-06T02:06:04.635Z,93.14
2023-03-06T02:07:04.626Z,93.24
2023-03-06T02:08:04.635Z,93.45
2023-03-06T02:09:04.602Z,93.45
2023-03-06T02:10:04.587Z,93.45
2023-03-06T02:11:04.574Z,93.45
2023-03-06T02:12:04.556Z,93.45
2023-03-06T02:13:04.569Z,93.35
2023-03-06T02:14:04.534Z,93.35
2023-03-06T02:15:04.526Z,93.45
2023-03-06T02:16:04.509Z,93.45
2023-03-06T02:17:04.507Z,93.35
2023-03-06T02:18:04.494Z,93.20
2023-03-06T02:19:04.483Z,92.99
2023-03-06T02:20:04.464Z,92.88
2023-03-06T02:21:04.445Z,92.57
2023-03-06T02:22:04.425Z,92.16
2023-03-06T02:23:04.445Z,91.95
2023-03-06T02:24:04.549Z,91.85
2023-03-06T02:25:04.392Z,91.85
2023-03-06T02:26:04.386Z,91.95
2023-03-06T02:27:04.384Z,91.95
2023-03-06T02:28:04.377Z,91.95
2023-03-06T02:29:04.349Z,92.05
2023-03-06T02:30:04.334Z,92.05
2023-03-06T02:31:04.375Z,92.16
2023-03-06T02:32:04.406Z,92.36
2023-03-06T02:33:04.337Z,92.47
2023-03-06T02:34:04.276Z,92.57
2023-03-06T02:35:04.267Z,92.68
2023-03-06T02:36:04.257Z,92.88
2023-03-06T02:37:04.252Z,93.10
2023-03-06T02:38:04.279Z,93.30
2023-03-06T02:39:04.225Z,93.45
2023-03-06T02:40:04.197Z,93.45
2023-03-06T02:41:04.189Z,93.45
2023-03-06T02:42:04.167Z,93.45
2023-03-06T02:43:04.176Z,93.55
2023-03-06T02:44:04.144Z,93.66
2023-03-06T02:45:04.140Z,93.87
2023-03-06T02:46:04.153Z,93.97
2023-03-06T02:47:04.108Z,93.97
2023-03-06T02:48:04.130Z,93.97
2023-03-06T02:49:04.095Z,93.76
2023-03-06T02:50:04.062Z,93.72
2023-03-06T02:51:04.062Z,93.62
2023-03-06T02:52:04.032Z,93.62
2023-03-06T02:53:04.048Z,93.41
2023-03-06T02:54:04.027Z,93.30
2023-03-06T02:55:04.000Z,93.30
2023-03-06T02:56:04.000Z,93.20
2023-03-06T02:57:03.989Z,93.10
2023-03-06T02:58:03.970Z,93.10
2023-03-06T02:59:03.949Z,93.10
2023-03-06T03:00:03.930Z,92.88
2023-03-06T03:01:03.919Z,92.88
2023-03-06T03:02:03.900Z,92.88
2023-03-06T03:03:03.918Z,92.78
2023-03-06T03:04:03.885Z,92.78
2023-03-06T03:05:03.869Z,92.68
2023-03-06T03:06:03.849Z,92.57
2023-03-06T03:07:03.839Z,92.57
2023-03-06T03:08:03.846Z,92.57
2023-03-06T03:09:03.813Z,92.57
2023-03-06T03:10:03.801Z,92.57
2023-03-06T03:11:03.812Z,92.68
2023-03-06T03:12:03.769Z,92.68
2023-03-06T03:13:03.782Z,92.61
2023-03-06T03:14:03.740Z,92.30
2023-03-06T03:15:03.737Z,92.30
2023-03-06T03:16:03.725Z,92.61
2023-03-06T03:17:03.707Z,92.82
2023-03-06T03:18:03.709Z,92.47
2023-03-06T03:19:03.689Z,92.16
2023-03-06T03:20:03.676Z,92.05
2023-03-06T03:21:03.657Z,91.85
2023-03-06T03:22:03.642Z,91.64
2023-03-06T03:23:03.694Z,91.64
2023-03-06T03:24:03.630Z,91.74
2023-03-06T03:25:03.618Z,91.64
2023-03-06T03:26:03.588Z,91.68
2023-03-06T03:27:03.685Z,91.78
2023-03-06T03:28:03.560Z,91.89
2023-03-06T03:29:03.585Z,91.78
2023-03-06T03:30:03.540Z,91.78
2023-03-06T03:31:03.586Z,91.99
2023-03-06T03:32:03.550Z,92.20
2023-03-06T03:33:03.502Z,92.30
2023-03-06T03:34:03.514Z,92.30
2023-03-06T03:35:03.483Z,92.10
2023-03-06T03:36:03.462Z,91.99
2023-03-06T03:37:03.451Z,91.99
2023-03-06T03:38:03.437Z,91.99
2023-03-06T03:39:03.446Z,91.99
2023-03-06T03:40:03.440Z,91.99
2023-03-06T03:41:03.418Z,91.99
2023-03-06T03:42:03.388Z,91.89
2023-03-06T03:43:03.372Z,91.78
2023-03-06T03:44:03.381Z,91.37
2023-03-06T03:45:03.343Z,91.16
2023-03-06T03:46:03.364Z,91.27
2023-03-06T03:47:03.319Z,91.27
2023-03-06T03:48:03.307Z,91.20
2023-03-06T03:49:03.314Z,91.41
2023-03-06T03:50:03.305Z,91.62
2023-03-06T03:51:03.282Z,91.62
2023-03-06T03:52:03.256Z,91.83
2023-03-06T03:53:03.252Z,91.93
2023-03-06T03:54:03.251Z,91.93
2023-03-06T03:55:03.211Z,91.72
2023-03-06T03:57:00.945Z,91.52
2023-03-06T03:58:00.918Z,91.72
2023-03-06T03:59:00.943Z,91.93
2023-03-06T04:00:00.895Z,92.14
2023-03-06T04:01:00.876Z,92.14
2023-03-06T04:02:00.916Z,92.24
2023-03-06T04:03:00.846Z,92.29
2023-03-06T04:04:00.873Z,92.35
2023-03-06T04:05:00.906Z,92.45
2023-03-06T04:06:00.807Z,92.35
2023-03-06T04:07:00.802Z,92.35
2023-03-06T04:08:00.793Z,92.24
2023-03-06T04:09:00.798Z,92.14
2023-03-06T04:10:00.759Z,92.03
2023-03-06T04:11:00.738Z,91.83
2023-03-06T04:12:00.734Z,91.83
2023-03-06T04:13:00.714Z,91.83
2023-03-06T04:14:00.733Z,91.72
2023-03-06T04:15:00.693Z,91.72
2023-03-06T04:16:00.718Z,91.83
2023-03-06T04:17:00.673Z,92.03
2023-03-06T04:18:00.654Z,92.14
2023-03-06T04:19:00.676Z,92.24
2023-03-06T04:20:00.632Z,92.35
2023-03-06T04:21:00.616Z,92.35
2023-03-06T04:22:00.594Z,92.35
2023-03-06T04:23:00.603Z,92.45
2023-03-06T04:24:00.593Z,92.55
2023-03-06T04:25:00.568Z,92.55
2023-03-06T04:26:00.555Z,92.55
2023-03-06T04:27:00.527Z,92.66
2023-03-06T04:28:00.528Z,92.66
2023-03-06T04:29:00.538Z,92.76
2023-03-06T04:30:00.494Z,92.86
2023-03-06T04:31:00.487Z,92.66
2023-03-06T04:32:00.563Z,92.24
2023-03-06T04:33:00.458Z,92.08
2023-03-06T04:34:00.458Z,92.18
2023-03-06T04:35:00.425Z,92.24
2023-03-06T04:36:00.435Z,92.45
2023-03-06T04:37:00.404Z,92.55
2023-03-06T04:38:00.407Z,92.66
2023-03-06T04:39:00.441Z,92.76
2023-03-06T04:40:00.378Z,92.76
2023-03-06T04:41:00.345Z,92.76
2023-03-06T04:42:00.344Z,92.60
2023-03-06T04:43:00.332Z,92.49
2023-03-06T04:44:00.339Z,92.60
2023-03-06T04:45:00.304Z,92.80
2023-03-06T04:46:00.352Z,92.70
2023-03-06T04:47:00.288Z,92.60
2023-03-06T04:48:00.268Z,92.49
2023-03-06T04:49:00.288Z,92.49
2023-03-06T04:50:00.239Z,92.49
2023-03-06T04:51:00.221Z,92.49
2023-03-06T04:52:00.245Z,92.29
2023-03-06T04:53:00.207Z,92.08
2023-03-06T04:54:00.216Z,92.08
2023-03-06T04:55:00.170Z,92.29
2023-03-06T04:56:00.157Z,92.39
2023-03-06T04:57:00.139Z,92.29
2023-03-06T04:58:00.178Z,92.18
2023-03-06T04:59:00.140Z,91.97
2023-03-06T05:00:00.132Z,91.77
2023-03-06T05:01:00.140Z,91.66
2023-03-06T05:02:00.174Z,91.35
2023-03-06T05:03:00.109Z,91.14
2023-03-06T05:04:00.067Z,91.04
2023-03-06T05:05:00.030Z,91.04
2023-03-06T05:06:00.015Z,91.04
2023-03-06T05:07:00.006Z,91.04
2023-03-06T05:07:59.993Z,91.04
2023-03-06T05:08:59.994Z,90.93
2023-03-06T05:09:59.970Z,90.83
2023-03-06T05:10:59.954Z,90.83
2023-03-06T05:11:59.951Z,90.83
2023-03-06T05:12:59.927Z,90.93
2023-03-06T05:13:59.912Z,90.93
2023-03-06T05:14:59.921Z,90.83
2023-03-06T05:15:59.899Z,90.93
2023-03-06T05:16:59.865Z,90.93
2023-03-06T05:17:59.870Z,90.93
2023-03-06T05:18:59.851Z,91.04
2023-03-06T05:19:59.864Z,91.14
2023-03-06T05:20:59.868Z,91.25
2023-03-06T05:21:59.811Z,91.56
2023-03-06T05:22:59.800Z,91.77
2023-03-06T05:23:59.790Z,91.66
2023-03-06T05:24:59.790Z,91.77
2023-03-06T05:25:59.771Z,91.93
2023-03-06T05:26:59.742Z,91.83
2023-03-06T05:27:59.731Z,91.62
2023-03-06T05:28:59.719Z,91.41
2023-03-06T05:29:59.724Z,91.20
2023-03-06T05:31:01.005Z,91.10
2023-03-06T05:31:59.961Z,91.10
2023-03-06T05:32:59.710Z,91.10
2023-03-06T05:33:59.658Z,91.20
2023-03-06T05:34:59.640Z,91.10
2023-03-06T05:35:59.668Z,91.00
2023-03-06T05:36:59.620Z,90.89
2023-03-06T05:37:59.634Z,90.69
2023-03-06T05:38:59.599Z,90.47
2023-03-06T05:39:59.580Z,90.26
2023-03-06T05:40:59.572Z,90.06
2023-03-06T05:41:59.562Z,90.06
2023-03-06T05:42:59.553Z,90.16
2023-03-06T05:43:59.534Z,90.47
2023-03-06T05:44:59.524Z,90.69
2023-03-06T05:45:59.524Z,90.89
2023-03-06T05:46:59.485Z,91.10
2023-03-06T05:47:59.494Z,91.10
2023-03-06T05:48:59.466Z,91.31
2023-03-06T05:49:59.456Z,91.41
2023-03-06T05:50:59.442Z,91.31
2023-03-06T05:51:59.434Z,91.31
2023-03-06T05:52:59.424Z,91.35
2023-03-06T05:53:59.420Z,91.25
2023-03-06T05:54:59.384Z,91.35
2023-03-06T05:55:59.382Z,91.56
2023-03-06T05:56:59.353Z,91.97
2023-03-06T05:57:59.372Z,92.18
2023-03-06T05:58:59.333Z,92.39
2023-03-06T05:59:59.333Z,92.29
2023-03-06T06:00:59.302Z,92.39
2023-03-06T06:01:59.378Z,99.12
2023-03-06T06:02:59.349Z,99.99
2023-03-06T06:03:59.270Z,99.99
2023-03-06T06:04:59.257Z,99.99
2023-03-06T06:05:59.250Z,99.99
2023-03-06T06:06:59.231Z,99.00
2023-03-06T06:07:59.252Z,96.50
2023-03-06T06:08:59.200Z,93.95
2023-03-06T06:09:59.194Z,91.76
2023-03-06T06:10:59.171Z,90.45
2023-03-06T06:11:59.172Z,89.31
2023-03-06T06:12:59.179Z,88.62
2023-03-06T06:13:59.151Z,88.42
2023-03-06T06:14:59.119Z,88.77
2023-03-06T06:15:59.170Z,88.87
2023-03-06T06:16:59.116Z,88.87
2023-03-06T06:17:59.108Z,88.98
2023-03-06T06:18:59.107Z,89.08
2023-03-06T06:19:59.068Z,89.39
2023-03-06T06:20:59.029Z,89.70
2023-03-06T06:21:59.235Z,89.81
2023-03-06T06:22:59.038Z,89.92
2023-03-06T06:23:59.018Z,90.02
2023-03-06T06:24:58.990Z,90.12
2023-03-06T06:25:58.978Z,90.02
2023-03-06T06:27:01.924Z,89.92
2023-03-06T06:27:59.014Z,89.92
2023-03-06T06:29:00.228Z,89.92
2023-03-06T06:29:58.948Z,89.92
2023-03-06T06:30:58.929Z,89.81
2023-03-06T06:31:58.940Z,89.92
2023-03-06T06:32:58.958Z,89.81
2023-03-06T06:33:58.880Z,89.70
2023-03-06T06:34:58.871Z,89.60
2023-03-06T06:35:58.873Z,89.60
2023-03-06T06:36:58.848Z,89.46
2023-03-06T06:37:58.875Z,89.29
2023-03-06T06:38:58.820Z,89.18
2023-03-06T06:39:58.809Z,89.29
2023-03-06T06:41:33.001Z,89.39
2023-03-06T06:42:15.411Z,89.29
2023-03-06T06:42:59.852Z,89.25
2023-03-06T06:43:59.172Z,89.04
2023-03-06T06:44:58.737Z,88.94
2023-03-06T06:46:19.622Z,88.84
2023-03-06T06:47:21.888Z,88.84
2023-03-06T06:47:59.747Z,88.62
2023-03-06T06:48:58.687Z,88.52
2023-03-06T06:49:58.677Z,88.31
2023-03-06T06:50:58.659Z,88.31
2023-03-06T06:51:58.658Z,88.73
2023-03-06T06:52:58.657Z,89.04
2023-03-06T06:53:58.655Z,89.15
2023-03-06T06:54:58.621Z,89.15
2023-03-06T06:55:58.649Z,89.04
2023-03-06T06:56:58.602Z,89.15
2023-03-06T06:57:58.590Z,89.18
2023-03-06T06:59:14.009Z,89.39
2023-03-06T06:59:59.564Z,89.39
2023-03-06T07:00:58.536Z,89.25
2023-03-06T07:01:58.542Z,89.15
2023-03-06T07:02:58.530Z,89.18
2023-03-06T07:03:58.515Z,89.18
2023-03-06T07:05:05.829Z,89.39
2023-03-06T07:05:59.468Z,89.81
2023-03-06T07:06:58.483Z,90.23
2023-03-06T07:07:58.473Z,90.64
2023-03-06T07:08:58.428Z,90.85
2023-03-06T07:09:58.448Z,90.95
2023-03-06T07:10:58.414Z,91.06
2023-03-06T07:11:58.401Z,91.16
2023-03-06T07:12:58.397Z,91.06
2023-03-06T07:13:58.421Z,91.06
2023-03-06T07:14:58.349Z,91.20
2023-03-06T07:15:58.352Z,91.10
2023-03-06T07:16:58.326Z,91.20
2023-03-06T07:17:58.337Z,91.52
2023-03-06T07:18:58.312Z,91.52
2023-03-06T07:19:58.285Z,91.62
2023-03-06T07:21:01.006Z,91.62
2023-03-06T07:21:58.273Z,91.31
2023-03-06T07:22:58.258Z,91.06
2023-03-06T07:23:58.247Z,90.95
2023-03-06T07:24:58.228Z,90.95
2023-03-06T07:25:58.201Z,90.44
2023-03-06T07:26:58.227Z,90.23
2023-03-06T07:27:58.231Z,89.92
2023-03-06T07:28:58.194Z,89.67
2023-03-06T07:29:58.163Z,89.67
2023-03-06T07:30:58.183Z,89.87
2023-03-06T07:31:58.133Z,90.19
2023-03-06T07:32:58.134Z,90.60
2023-03-06T07:33:58.135Z,90.81
2023-03-06T07:35:17.216Z,90.91
2023-03-06T07:35:59.140Z,91.02
2023-03-06T07:36:58.080Z,91.12
2023-03-06T07:37:58.049Z,91.33
2023-03-06T07:38:58.059Z,91.22
2023-03-06T07:39:58.037Z,91.33
2023-03-06T07:40:58.012Z,91.64
2023-03-06T07:41:58.047Z,91.85
2023-03-06T07:43:12.967Z,91.74
2023-03-06T07:43:58.994Z,91.53
2023-03-06T07:44:57.985Z,91.22
2023-03-06T07:45:58.017Z,90.91
2023-03-06T07:46:58.006Z,90.56
2023-03-06T07:47:57.926Z,90.25
2023-03-06T07:48:58.105Z,89.94
2023-03-06T07:49:57.891Z,89.94
2023-03-06T07:50:57.891Z,89.94
2023-03-06T07:51:57.894Z,89.83
2023-03-06T07:52:57.863Z,90.04
2023-03-06T07:53:57.869Z,90.25
2023-03-06T07:54:57.843Z,90.35
2023-03-06T07:55:57.835Z,90.25
2023-03-06T07:56:57.820Z,90.04
2023-03-06T07:57:57.790Z,89.83
2023-03-06T07:58:57.802Z,89.73
2023-03-06T07:59:57.790Z,89.52
2023-03-06T08:00:57.801Z,89.73
2023-03-06T08:01:57.750Z,89.83
2023-03-06T08:02:57.748Z,89.00
2023-03-06T08:03:57.864Z,88.28
2023-03-06T08:04:57.722Z,88.13
2023-03-06T08:05:57.682Z,88.13
2023-03-06T08:06:57.695Z,88.23
2023-03-06T08:07:57.673Z,88.44
2023-03-06T08:08:57.713Z,88.13
2023-03-06T08:09:57.645Z,87.71
2023-03-06T08:10:57.630Z,87.61
2023-03-06T08:11:57.647Z,87.71
2023-03-06T08:12:57.613Z,87.82
2023-03-06T08:13:57.609Z,87.82
2023-03-06T08:14:57.596Z,87.92
2023-03-06T08:15:57.766Z,88.13
2023-03-06T08:16:57.558Z,88.02
2023-03-06T08:17:57.558Z,87.68
2023-03-06T08:18:57.558Z,87.09
2023-03-06T08:19:57.516Z,86.99
2023-03-06T08:20:57.509Z,87.30
2023-03-06T08:21:57.516Z,87.71
2023-03-06T08:22:57.491Z,87.82
2023-03-06T08:23:57.475Z,88.17
2023-03-06T08:24:57.449Z,88.38
2023-03-06T08:25:57.436Z,88.79
2023-03-06T08:26:57.430Z,89.31
2023-03-06T08:27:57.409Z,89.52
2023-03-06T08:28:57.434Z,89.37
2023-03-06T08:29:57.376Z,89.52
2023-03-06T08:30:57.384Z,89.69
2023-03-06T08:31:57.354Z,89.58
2023-03-06T08:32:57.346Z,89.69
2023-03-06T08:33:57.354Z,89.79
2023-03-06T08:34:57.325Z,89.58
2023-03-06T08:35:57.370Z,89.17
2023-03-06T08:36:57.304Z,88.75
2023-03-06T08:37:57.287Z,88.54
2023-03-06T08:38:57.286Z,87.61
2023-03-06T08:39:57.255Z,86.68
2023-03-06T08:40:57.254Z,85.74
2023-03-06T08:41:57.240Z,85.74
2023-03-06T08:42:57.226Z,84.81
2023-03-06T08:43:57.262Z,84.39
2023-03-06T08:44:57.206Z,85.12
2023-03-06T08:45:57.202Z,85.64
2023-03-06T08:46:57.162Z,85.33
2023-03-06T08:47:57.172Z,85.02
2023-03-06T08:48:57.151Z,85.47
2023-03-06T08:49:58.815Z,85.85
2023-03-06T08:50:57.123Z,86.68
2023-03-06T08:51:57.115Z,85.64
2023-03-06T08:52:57.091Z,86.57
2023-03-06T08:53:57.092Z,86.64
2023-03-06T08:54:57.070Z,85.39
2023-03-06T08:55:57.042Z,85.71
2023-03-06T08:56:57.033Z,87.16
2023-03-06T08:57:57.022Z,86.12
2023-03-06T08:58:57.021Z,85.08
2023-03-06T08:59:56.992Z,84.67
2023-03-06T09:00:57.053Z,84.36
2023-03-06T09:01:57.009Z,84.36
2023-03-06T09:02:56.971Z,84.88
2023-03-06T09:03:56.957Z,83.84
2023-03-06T09:04:56.942Z,84.15
2023-03-06T09:05:56.931Z,84.88
2023-03-06T09:06:56.913Z,84.36
2023-03-06T09:07:56.890Z,84.98
2023-03-06T09:08:56.925Z,84.77
2023-03-06T09:09:56.872Z,83.67
2023-03-06T09:10:56.888Z,84.19
2023-03-06T09:11:56.852Z,84.81
2023-03-06T09:12:56.857Z,84.91
2023-03-06T09:13:56.831Z,85.12
2023-03-06T09:14:56.827Z,85.43
2023-03-06T09:15:56.826Z,84.81
2023-03-06T09:16:56.817Z,84.64
2023-03-06T09:17:56.823Z,84.84
2023-03-06T09:18:56.750Z,85.78
2023-03-06T09:19:56.760Z,86.30
2023-03-06T09:20:56.731Z,85.47
2023-03-06T09:21:56.722Z,84.64
2023-03-06T09:22:56.713Z,85.16
2023-03-06T09:23:56.696Z,85.78
2023-03-06T09:24:56.693Z,85.95
2023-03-06T09:25:56.671Z,85.53
2023-03-06T09:26:56.653Z,85.33
2023-03-06T09:28:10.447Z,84.50
2023-03-06T09:28:57.652Z,82.84
2023-03-06T09:29:56.751Z,82.84
2023-03-06T09:30:56.641Z,83.56
2023-03-06T09:31:56.618Z,83.87
2023-03-06T09:32:56.584Z,83.84
2023-03-06T09:33:56.579Z,83.63
2023-03-06T09:34:56.587Z,83.15
2023-03-06T09:35:56.570Z,82.84
2023-03-06T09:36:57.704Z,83.25
2023-03-06T09:37:56.516Z,82.94
2023-03-06T09:38:56.503Z,83.04
2023-03-06T09:39:56.525Z,83.73
2023-03-06T09:40:56.492Z,84.05
2023-03-06T09:41:56.486Z,84.25
2023-03-06T09:42:56.455Z,84.25
2023-03-06T09:43:56.442Z,83.73
2023-03-06T09:44:56.455Z,82.39
2023-03-06T09:45:56.425Z,82.01
2023-03-06T09:46:56.404Z,82.84
2023-03-06T09:47:56.391Z,83.77
2023-03-06T09:48:56.382Z,84.05
2023-03-06T09:49:56.383Z,83.84
2023-03-06T09:50:57.384Z,83.42
2023-03-06T09:51:56.339Z,83.01
2023-03-06T09:52:56.333Z,84.15
2023-03-06T09:53:56.301Z,84.88
2023-03-06T09:54:56.323Z,84.11
2023-03-06T09:55:56.290Z,81.41
2023-03-06T09:56:56.289Z,81.62
2023-03-06T09:57:56.261Z,82.34
2023-03-06T09:58:56.269Z,83.07
2023-03-06T09:59:56.254Z,82.70
2023-03-06T10:00:56.222Z,82.07
2023-03-06T10:01:56.204Z,82.49
2023-03-06T10:02:56.267Z,83.01
2023-03-06T10:03:56.179Z,83.73
2023-03-06T10:04:56.256Z,82.49
2023-03-06T10:05:56.150Z,82.59
2023-03-06T10:06:56.184Z,82.24
2023-03-06T10:07:56.134Z,82.24
2023-03-06T10:08:56.125Z,83.59
2023-03-06T10:09:56.131Z,82.55
2023-03-06T10:10:56.099Z,82.20
2023-03-06T10:11:56.076Z,82.72
2023-03-06T10:12:56.069Z,82.20
2023-03-06T10:13:56.061Z,81.89
2023-03-06T10:14:56.089Z,82.20
2023-03-06T10:15:56.068Z,82.51
2023-03-06T10:16:56.012Z,81.79
2023-03-06T10:17:56.007Z,79.82
2023-03-06T10:18:55.990Z,79.30
2023-03-06T10:19:55.992Z,79.71
2023-03-06T10:20:55.972Z,79.82
2023-03-06T10:21:55.952Z,79.51
2023-03-06T10:23:01.307Z,79.41
2023-03-06T10:23:56.931Z,79.92
2023-03-06T10:24:55.933Z,79.51
2023-03-06T10:25:55.944Z,79.41
2023-03-06T10:26:56.047Z,77.85
2023-03-06T10:27:55.872Z,78.06
2023-03-06T10:28:55.870Z,77.54
2023-03-06T10:30:02.801Z,77.16
2023-03-06T10:30:56.838Z,79.30
2023-03-06T10:31:55.833Z,78.47
2023-03-06T10:32:55.865Z,78.37
2023-03-06T10:33:55.803Z,78.58
2023-03-06T10:34:55.786Z,79.27
2023-03-06T10:35:55.940Z,80.30
2023-03-06T10:36:55.763Z,78.33
2023-03-06T10:37:55.732Z,78.02
2023-03-06T10:38:55.745Z,77.88
2023-03-06T10:39:55.736Z,77.26
2023-03-06T10:40:55.728Z,77.57
2023-03-06T10:41:55.728Z,77.47
2023-03-06T10:43:10.617Z,76.12
2023-03-06T10:43:56.737Z,74.98
2023-03-06T10:44:55.654Z,75.40
2023-03-06T10:45:55.778Z,75.19
2023-03-06T10:46:55.675Z,75.50
2023-03-06T10:47:55.745Z,75.60
2023-03-06T10:48:55.624Z,74.67
2023-03-06T10:49:55.835Z,75.29
2023-03-06T10:50:55.849Z,75.29
2023-03-06T10:51:55.735Z,74.36
2023-03-06T10:52:55.558Z,74.60
2023-03-06T10:53:55.531Z,74.81
2023-03-06T10:54:55.545Z,74.71
2023-03-06T10:55:55.546Z,74.60
2023-03-06T10:56:55.502Z,74.60
2023-03-06T10:57:55.503Z,75.22
2023-03-06T10:58:55.471Z,75.02
2023-03-06T10:59:55.466Z,73.88
2023-03-06T11:00:55.493Z,73.98
2023-03-06T11:01:55.464Z,73.67
2023-03-06T11:02:55.683Z,73.88
2023-03-06T11:03:55.401Z,74.50
2023-03-06T11:04:55.529Z,74.19
2023-03-06T11:05:55.544Z,73.36
2023-03-06T11:06:55.373Z,73.98
2023-03-06T11:07:56.222Z,74.71
2023-03-06T11:08:55.371Z,75.12
2023-03-06T11:09:55.332Z,75.74
2023-03-06T11:10:55.332Z,76.05
2023-03-06T11:11:55.322Z,75.74
2023-03-06T11:12:55.293Z,76.15
2023-03-06T11:13:55.321Z,76.46
2023-03-06T11:14:55.291Z,76.64
2023-03-06T11:15:55.275Z,76.84
2023-03-06T11:16:55.306Z,76.32
2023-03-06T11:17:55.242Z,77.26
2023-03-06T11:18:55.252Z,75.50
2023-03-06T11:19:55.201Z,75.09
2023-03-06T11:20:55.218Z,74.98
2023-03-06T11:21:55.254Z,75.40
2023-03-06T11:22:55.162Z,75.92
2023-03-06T11:23:55.149Z,75.40
2023-03-06T11:24:55.145Z,75.50
2023-03-06T11:25:55.111Z,75.40
2023-03-06T11:26:55.142Z,75.92
2023-03-06T11:27:55.100Z,75.92
2023-03-06T11:28:55.147Z,75.40
2023-03-06T11:29:55.077Z,76.02
2023-03-06T11:30:55.062Z,76.40
2023-03-06T11:31:55.399Z,75.26
2023-03-06T11:32:55.029Z,74.15
2023-03-06T11:33:55.043Z,74.57
2023-03-06T11:34:55.000Z,75.19
2023-03-06T11:35:55.047Z,75.60
2023-03-06T11:36:55.036Z,75.67
2023-03-06T11:37:54.960Z,75.46
2023-03-06T11:38:54.987Z,75.57
2023-03-06T11:39:54.937Z,75.46
2023-03-06T11:40:54.927Z,75.84
2023-03-06T11:41:54.931Z,74.29
2023-03-06T11:42:54.898Z,73.50
2023-03-06T11:43:54.885Z,73.29
2023-03-06T11:44:54.872Z,72.77
2023-03-06T11:45:54.874Z,83.61
2023-03-06T11:46:55.100Z,81.39
2023-03-06T11:47:54.913Z,80.94
2023-03-06T11:48:54.823Z,84.83
2023-03-06T11:49:54.816Z,76.84
2023-03-06T11:50:54.786Z,75.77
2023-03-06T11:51:54.817Z,70.82
2023-03-06T11:52:54.765Z,77.39
2023-03-06T11:53:54.760Z,70.89
2023-03-06T11:54:54.775Z,70.89
2023-03-06T11:55:54.734Z,70.20
2023-03-06T11:56:54.808Z,68.58
2023-03-06T11:57:54.711Z,69.95
2023-03-06T11:58:54.823Z,71.64
2023-03-06T11:59:54.687Z,70.19
2023-03-06T12:00:54.652Z,69.88
2023-03-06T12:01:54.697Z,70.29
2023-03-06T12:02:54.629Z,70.84
2023-03-06T12:03:56.934Z,71.88
2023-03-06T12:04:54.637Z,71.95
2023-03-06T12:05:54.591Z,72.78
2023-03-06T12:06:54.593Z,72.74
2023-03-06T12:07:54.562Z,69.71
2023-03-06T12:08:54.555Z,70.09
2023-03-06T12:09:54.554Z,70.17
2023-03-06T12:10:54.530Z,67.17
2023-03-06T12:11:54.540Z,68.72
2023-03-06T12:12:54.521Z,68.90
2023-03-06T12:13:54.502Z,67.24
2023-03-06T12:14:54.490Z,66.60
2023-03-06T12:15:54.476Z,64.98
2023-03-06T12:16:54.510Z,65.08
2023-03-06T12:17:54.460Z,66.21
2023-03-06T12:18:54.429Z,67.03
2023-03-06T12:19:54.420Z,66.11
2023-03-06T12:20:54.408Z,65.56
2023-03-06T12:21:54.392Z,66.91
2023-03-06T12:23:02.519Z,65.12
2023-03-06T12:23:55.377Z,64.50
2023-03-06T12:24:54.346Z,63.54
2023-03-06T12:25:54.339Z,61.38
2023-03-06T12:26:54.320Z,60.97
2023-03-06T12:27:54.399Z,62.62
2023-03-06T12:28:54.345Z,62.10
2023-03-06T12:29:54.289Z,60.46
2023-03-06T12:30:54.398Z,60.05
2023-03-06T12:31:54.354Z,60.35
2023-03-06T12:32:54.249Z,59.70
2023-03-06T12:33:54.238Z,60.33
2023-03-06T12:34:54.223Z,60.53
2023-03-06T12:35:54.231Z,59.91
2023-03-06T12:36:54.190Z,59.81
2023-03-06T12:37:54.240Z,65.55
2023-03-06T12:38:54.180Z,62.59
2023-03-06T12:39:54.172Z,60.22
2023-03-06T12:40:54.148Z,60.66
2023-03-06T12:41:54.118Z,60.15
2023-03-06T12:42:54.132Z,58.60
2023-03-06T12:43:54.101Z,58.60
2023-03-06T12:44:54.089Z,59.63
2023-03-06T12:45:54.106Z,60.53
2023-03-06T12:46:54.448Z,57.65
2023-03-06T12:47:54.119Z,57.44
2023-03-06T12:48:54.049Z,59.30
2023-03-06T12:49:54.018Z,58.89
2023-03-06T12:50:54.011Z,58.47
2023-03-06T12:51:53.998Z,59.78
2023-03-06T12:52:54.001Z,57.82